sensor_id;sensor_type;location;lat;lon;timestamp;temperature;humidity
67054;SHT31;53960;51.826;5.850;2023-12-14T00:01:51;7.43;97.29
67054;SHT31;53960;51.826;5.850;2023-12-14T00:04:17;7.44;97.20
67054;SHT31;53960;51.826;5.850;2023-12-14T00:06:42;7.35;97.35
67054;SHT31;53960;51.826;5.850;2023-12-14T00:09:07;7.34;97.53
67054;SHT31;53960;51.826;5.850;2023-12-14T00:11:39;7.38;97.31
67054;SHT31;53960;51.826;5.850;2023-12-14T00:14:05;7.40;97.65
67054;SHT31;53960;51.826;5.850;2023-12-14T00:16:30;7.38;97.50
67054;SHT31;53960;51.826;5.850;2023-12-14T00:18:56;7.34;97.65
67054;SHT31;53960;51.826;5.850;2023-12-14T00:21:21;7.34;97.67
67054;SHT31;53960;51.826;5.850;2023-12-14T00:23:47;7.32;97.71
67054;SHT31;53960;51.826;5.850;2023-12-14T00:26:12;7.38;97.66
67054;SHT31;53960;51.826;5.850;2023-12-14T00:28:37;7.37;97.50
67054;SHT31;53960;51.826;5.850;2023-12-14T00:31:03;7.23;97.58
67054;SHT31;53960;51.826;5.850;2023-12-14T00:33:28;7.26;97.70
67054;SHT31;53960;51.826;5.850;2023-12-14T00:35:54;7.23;97.82
67054;SHT31;53960;51.826;5.850;2023-12-14T00:38:19;7.24;98.00
67054;SHT31;53960;51.826;5.850;2023-12-14T00:40:45;7.28;97.81
67054;SHT31;53960;51.826;5.850;2023-12-14T00:43:10;7.26;97.87
67054;SHT31;53960;51.826;5.850;2023-12-14T00:45:35;7.27;97.79
67054;SHT31;53960;51.826;5.850;2023-12-14T00:48:00;7.20;97.65
67054;SHT31;53960;51.826;5.850;2023-12-14T00:50:26;7.17;97.85
67054;SHT31;53960;51.826;5.850;2023-12-14T00:52:51;7.08;98.02
67054;SHT31;53960;51.826;5.850;2023-12-14T00:55:16;7.04;97.99
67054;SHT31;53960;51.826;5.850;2023-12-14T00:57:45;6.99;98.26
67054;SHT31;53960;51.826;5.850;2023-12-14T01:00:10;7.01;98.14
67054;SHT31;53960;51.826;5.850;2023-12-14T01:02:37;6.97;97.94
67054;SHT31;53960;51.826;5.850;2023-12-14T01:05:02;6.90;98.15
67054;SHT31;53960;51.826;5.850;2023-12-14T01:07:28;6.92;98.02
67054;SHT31;53960;51.826;5.850;2023-12-14T01:09:53;7.03;98.20
67054;SHT31;53960;51.826;5.850;2023-12-14T01:12:19;7.00;98.10
67054;SHT31;53960;51.826;5.850;2023-12-14T01:14:44;6.96;97.62
67054;SHT31;53960;51.826;5.850;2023-12-14T01:17:09;6.96;97.65
67054;SHT31;53960;51.826;5.850;2023-12-14T01:19:35;6.97;97.91
67054;SHT31;53960;51.826;5.850;2023-12-14T01:22:00;6.95;97.95
67054;SHT31;53960;51.826;5.850;2023-12-14T01:24:25;6.83;98.09
67054;SHT31;53960;51.826;5.850;2023-12-14T01:26:51;6.77;97.80
67054;SHT31;53960;51.826;5.850;2023-12-14T01:29:16;6.75;98.14
67054;SHT31;53960;51.826;5.850;2023-12-14T01:31:42;6.77;98.25
67054;SHT31;53960;51.826;5.850;2023-12-14T01:34:07;6.77;98.17
67054;SHT31;53960;51.826;5.850;2023-12-14T01:36:33;6.80;97.86
67054;SHT31;53960;51.826;5.850;2023-12-14T01:38:59;6.80;97.68
67054;SHT31;53960;51.826;5.850;2023-12-14T01:41:24;6.72;97.70
67054;SHT31;53960;51.826;5.850;2023-12-14T01:43:49;6.66;97.69
67054;SHT31;53960;51.826;5.850;2023-12-14T01:46:15;6.72;98.16
67054;SHT31;53960;51.826;5.850;2023-12-14T01:48:41;6.66;98.04
67054;SHT31;53960;51.826;5.850;2023-12-14T01:51:07;6.65;98.08
67054;SHT31;53960;51.826;5.850;2023-12-14T01:53:32;6.59;98.22
67054;SHT31;53960;51.826;5.850;2023-12-14T01:55:57;6.53;98.42
67054;SHT31;53960;51.826;5.850;2023-12-14T01:58:23;6.59;98.53
67054;SHT31;53960;51.826;5.850;2023-12-14T02:01:06;6.64;98.39
67054;SHT31;53960;51.826;5.850;2023-12-14T02:03:32;6.61;98.05
67054;SHT31;53960;51.826;5.850;2023-12-14T02:05:58;6.58;97.92
67054;SHT31;53960;51.826;5.850;2023-12-14T02:08:24;6.49;97.66
67054;SHT31;53960;51.826;5.850;2023-12-14T02:10:50;6.58;97.50
67054;SHT31;53960;51.826;5.850;2023-12-14T02:13:15;6.50;97.39
67054;SHT31;53960;51.826;5.850;2023-12-14T02:15:41;6.58;97.66
67054;SHT31;53960;51.826;5.850;2023-12-14T02:18:06;6.59;97.06
67054;SHT31;53960;51.826;5.850;2023-12-14T02:20:31;6.55;97.03
67054;SHT31;53960;51.826;5.850;2023-12-14T02:22:57;6.59;97.38
67054;SHT31;53960;51.826;5.850;2023-12-14T02:25:23;6.56;97.05
67054;SHT31;53960;51.826;5.850;2023-12-14T02:27:50;6.58;96.94
67054;SHT31;53960;51.826;5.850;2023-12-14T02:30:17;6.49;96.80
67054;SHT31;53960;51.826;5.850;2023-12-14T02:32:42;6.52;96.84
67054;SHT31;53960;51.826;5.850;2023-12-14T02:35:08;6.49;97.22
67054;SHT31;53960;51.826;5.850;2023-12-14T02:37:34;6.52;97.03
67054;SHT31;53960;51.826;5.850;2023-12-14T02:40:02;6.52;96.93
67054;SHT31;53960;51.826;5.850;2023-12-14T02:42:29;6.55;96.93
67054;SHT31;53960;51.826;5.850;2023-12-14T02:44:54;6.56;96.83
67054;SHT31;53960;51.826;5.850;2023-12-14T02:47:19;6.56;96.98
67054;SHT31;53960;51.826;5.850;2023-12-14T02:49:45;6.59;97.24
67054;SHT31;53960;51.826;5.850;2023-12-14T02:52:10;6.59;97.33
67054;SHT31;53960;51.826;5.850;2023-12-14T02:54:39;6.69;97.29
67054;SHT31;53960;51.826;5.850;2023-12-14T02:57:04;6.75;96.71
67054;SHT31;53960;51.826;5.850;2023-12-14T02:59:30;6.76;96.21
67054;SHT31;53960;51.826;5.850;2023-12-14T03:01:56;6.72;96.25
67054;SHT31;53960;51.826;5.850;2023-12-14T03:04:21;6.76;96.60
67054;SHT31;53960;51.826;5.850;2023-12-14T03:06:46;6.73;96.27
67054;SHT31;53960;51.826;5.850;2023-12-14T03:09:12;6.53;96.80
67054;SHT31;53960;51.826;5.850;2023-12-14T03:11:37;6.62;96.57
67054;SHT31;53960;51.826;5.850;2023-12-14T03:14:03;6.62;96.37
67054;SHT31;53960;51.826;5.850;2023-12-14T03:16:28;6.55;96.15
67054;SHT31;53960;51.826;5.850;2023-12-14T03:18:53;6.53;96.57
67054;SHT31;53960;51.826;5.850;2023-12-14T03:21:19;6.53;96.44
67054;SHT31;53960;51.826;5.850;2023-12-14T03:23:45;6.59;96.50
67054;SHT31;53960;51.826;5.850;2023-12-14T03:26:11;6.56;96.49
67054;SHT31;53960;51.826;5.850;2023-12-14T03:28:36;6.56;96.51
67054;SHT31;53960;51.826;5.850;2023-12-14T03:31:02;6.58;96.37
67054;SHT31;53960;51.826;5.850;2023-12-14T03:33:27;6.61;96.08
67054;SHT31;53960;51.826;5.850;2023-12-14T03:35:53;6.53;96.19
67054;SHT31;53960;51.826;5.850;2023-12-14T03:38:19;6.53;95.98
67054;SHT31;53960;51.826;5.850;2023-12-14T03:40:44;6.48;95.70
67054;SHT31;53960;51.826;5.850;2023-12-14T03:43:09;6.42;95.54
67054;SHT31;53960;51.826;5.850;2023-12-14T03:45:35;6.32;95.71
67054;SHT31;53960;51.826;5.850;2023-12-14T03:48:00;6.38;95.57
67054;SHT31;53960;51.826;5.850;2023-12-14T03:50:25;6.31;95.77
67054;SHT31;53960;51.826;5.850;2023-12-14T03:52:51;6.32;96.01
67054;SHT31;53960;51.826;5.850;2023-12-14T03:55:16;6.35;95.74
67054;SHT31;53960;51.826;5.850;2023-12-14T03:57:42;6.37;95.91
67054;SHT31;53960;51.826;5.850;2023-12-14T04:00:11;6.44;96.08
67054;SHT31;53960;51.826;5.850;2023-12-14T04:02:37;6.53;95.32
67054;SHT31;53960;51.826;5.850;2023-12-14T04:05:03;6.56;95.37
67054;SHT31;53960;51.826;5.850;2023-12-14T04:07:29;6.49;95.72
67054;SHT31;53960;51.826;5.850;2023-12-14T04:09:54;6.59;95.35
67054;SHT31;53960;51.826;5.850;2023-12-14T04:12:19;6.53;95.27
67054;SHT31;53960;51.826;5.850;2023-12-14T04:14:45;6.39;95.05
67054;SHT31;53960;51.826;5.850;2023-12-14T04:17:11;6.32;95.40
67054;SHT31;53960;51.826;5.850;2023-12-14T04:19:38;6.32;95.53
67054;SHT31;53960;51.826;5.850;2023-12-14T04:22:03;6.32;95.50
67054;SHT31;53960;51.826;5.850;2023-12-14T04:24:29;6.34;95.55
67054;SHT31;53960;51.826;5.850;2023-12-14T04:26:55;6.37;95.51
67054;SHT31;53960;51.826;5.850;2023-12-14T04:29:20;6.48;95.51
67054;SHT31;53960;51.826;5.850;2023-12-14T04:31:46;6.49;95.20
67054;SHT31;53960;51.826;5.850;2023-12-14T04:34:11;6.42;95.34
67054;SHT31;53960;51.826;5.850;2023-12-14T04:36:40;6.55;95.05
67054;SHT31;53960;51.826;5.850;2023-12-14T04:39:06;6.62;94.62
67054;SHT31;53960;51.826;5.850;2023-12-14T04:41:32;6.53;94.57
67054;SHT31;53960;51.826;5.850;2023-12-14T04:43:57;6.59;94.34
67054;SHT31;53960;51.826;5.850;2023-12-14T04:46:22;6.50;94.57
67054;SHT31;53960;51.826;5.850;2023-12-14T04:48:48;6.53;94.45
67054;SHT31;53960;51.826;5.850;2023-12-14T04:51:13;6.53;94.58
67054;SHT31;53960;51.826;5.850;2023-12-14T04:53:38;6.56;93.99
67054;SHT31;53960;51.826;5.850;2023-12-14T04:56:04;6.48;94.02
67054;SHT31;53960;51.826;5.850;2023-12-14T04:58:29;6.55;94.17
67054;SHT31;53960;51.826;5.850;2023-12-14T05:00:55;6.56;94.15
67054;SHT31;53960;51.826;5.850;2023-12-14T05:03:20;6.50;93.48
67054;SHT31;53960;51.826;5.850;2023-12-14T05:05:45;6.53;94.17
67054;SHT31;53960;51.826;5.850;2023-12-14T05:08:11;6.58;94.18
67054;SHT31;53960;51.826;5.850;2023-12-14T05:10:36;6.56;93.87
67054;SHT31;53960;51.826;5.850;2023-12-14T05:13:01;6.56;94.02
67054;SHT31;53960;51.826;5.850;2023-12-14T05:15:27;6.55;94.20
67054;SHT31;53960;51.826;5.850;2023-12-14T05:17:52;6.59;94.00
67054;SHT31;53960;51.826;5.850;2023-12-14T05:20:18;6.56;93.68
67054;SHT31;53960;51.826;5.850;2023-12-14T05:22:44;6.56;93.58
67054;SHT31;53960;51.826;5.850;2023-12-14T05:25:10;6.49;93.36
67054;SHT31;53960;51.826;5.850;2023-12-14T05:27:35;6.52;93.72
67054;SHT31;53960;51.826;5.850;2023-12-14T05:30:00;6.52;94.05
67054;SHT31;53960;51.826;5.850;2023-12-14T05:32:26;6.55;94.04
67054;SHT31;53960;51.826;5.850;2023-12-14T05:34:51;6.53;93.86
67054;SHT31;53960;51.826;5.850;2023-12-14T05:37:16;6.58;94.21
67054;SHT31;53960;51.826;5.850;2023-12-14T05:39:42;6.55;94.46
67054;SHT31;53960;51.826;5.850;2023-12-14T05:42:08;6.55;94.42
67054;SHT31;53960;51.826;5.850;2023-12-14T05:44:34;6.53;94.46
67054;SHT31;53960;51.826;5.850;2023-12-14T05:46:59;6.58;94.74
67054;SHT31;53960;51.826;5.850;2023-12-14T05:49:24;6.53;94.81
67054;SHT31;53960;51.826;5.850;2023-12-14T05:51:49;6.56;95.02
67054;SHT31;53960;51.826;5.850;2023-12-14T05:54:15;6.61;94.85
67054;SHT31;53960;51.826;5.850;2023-12-14T05:56:40;6.59;95.10
67054;SHT31;53960;51.826;5.850;2023-12-14T05:59:06;6.59;95.18
67054;SHT31;53960;51.826;5.850;2023-12-14T06:01:31;6.58;95.42
67054;SHT31;53960;51.826;5.850;2023-12-14T06:03:56;6.56;95.22
67054;SHT31;53960;51.826;5.850;2023-12-14T06:06:22;6.56;95.21
67054;SHT31;53960;51.826;5.850;2023-12-14T06:08:48;6.59;94.86
67054;SHT31;53960;51.826;5.850;2023-12-14T06:11:13;6.58;94.74
67054;SHT31;53960;51.826;5.850;2023-12-14T06:13:39;6.56;94.27
67054;SHT31;53960;51.826;5.850;2023-12-14T06:16:05;6.50;94.54
67054;SHT31;53960;51.826;5.850;2023-12-14T06:18:32;6.50;94.81
67054;SHT31;53960;51.826;5.850;2023-12-14T06:20:57;6.49;94.53
67054;SHT31;53960;51.826;5.850;2023-12-14T06:23:22;6.31;94.82
67054;SHT31;53960;51.826;5.850;2023-12-14T06:25:48;6.38;95.06
67054;SHT31;53960;51.826;5.850;2023-12-14T06:28:13;6.38;95.02
67054;SHT31;53960;51.826;5.850;2023-12-14T06:30:38;6.37;94.63
67054;SHT31;53960;51.826;5.850;2023-12-14T06:33:04;6.37;94.95
67054;SHT31;53960;51.826;5.850;2023-12-14T06:35:29;6.31;94.85
67054;SHT31;53960;51.826;5.850;2023-12-14T06:37:54;6.35;94.84
67054;SHT31;53960;51.826;5.850;2023-12-14T06:40:20;6.34;95.09
67054;SHT31;53960;51.826;5.850;2023-12-14T06:42:45;6.29;94.85
67054;SHT31;53960;51.826;5.850;2023-12-14T06:45:11;6.29;94.84
67054;SHT31;53960;51.826;5.850;2023-12-14T06:47:36;6.29;94.39
67054;SHT31;53960;51.826;5.850;2023-12-14T06:50:01;6.35;94.20
67054;SHT31;53960;51.826;5.850;2023-12-14T06:52:27;6.39;94.33
67054;SHT31;53960;51.826;5.850;2023-12-14T06:54:52;6.29;94.43
67054;SHT31;53960;51.826;5.850;2023-12-14T06:57:17;6.38;94.10
67054;SHT31;53960;51.826;5.850;2023-12-14T06:59:43;6.34;94.06
67054;SHT31;53960;51.826;5.850;2023-12-14T07:02:08;6.38;94.37
67054;SHT31;53960;51.826;5.850;2023-12-14T07:04:33;6.34;94.31
67054;SHT31;53960;51.826;5.850;2023-12-14T07:06:59;6.41;93.93
67054;SHT31;53960;51.826;5.850;2023-12-14T07:09:25;6.35;93.96
67054;SHT31;53960;51.826;5.850;2023-12-14T07:11:50;6.45;93.70
67054;SHT31;53960;51.826;5.850;2023-12-14T07:14:16;6.48;93.66
67054;SHT31;53960;51.826;5.850;2023-12-14T07:16:42;6.44;93.39
67054;SHT31;53960;51.826;5.850;2023-12-14T07:19:07;6.39;93.71
67054;SHT31;53960;51.826;5.850;2023-12-14T07:21:32;6.31;93.85
67054;SHT31;53960;51.826;5.850;2023-12-14T07:23:58;6.22;93.94
67054;SHT31;53960;51.826;5.850;2023-12-14T07:26:24;6.27;94.11
67054;SHT31;53960;51.826;5.850;2023-12-14T07:28:49;6.34;93.66
67054;SHT31;53960;51.826;5.850;2023-12-14T07:31:14;6.35;93.53
67054;SHT31;53960;51.826;5.850;2023-12-14T07:33:40;6.32;93.63
67054;SHT31;53960;51.826;5.850;2023-12-14T07:36:05;6.22;93.03
67054;SHT31;53960;51.826;5.850;2023-12-14T07:38:31;6.31;93.35
67054;SHT31;53960;51.826;5.850;2023-12-14T07:40:57;6.34;93.22
67054;SHT31;53960;51.826;5.850;2023-12-14T07:43:23;6.21;93.23
67054;SHT31;53960;51.826;5.850;2023-12-14T07:45:48;6.17;93.63
67054;SHT31;53960;51.826;5.850;2023-12-14T07:48:14;6.13;93.67
67054;SHT31;53960;51.826;5.850;2023-12-14T07:50:39;6.10;93.76
67054;SHT31;53960;51.826;5.850;2023-12-14T07:53:04;6.08;93.69
67054;SHT31;53960;51.826;5.850;2023-12-14T07:55:30;6.04;93.93
67054;SHT31;53960;51.826;5.850;2023-12-14T07:57:56;6.04;94.19
67054;SHT31;53960;51.826;5.850;2023-12-14T08:00:21;5.96;94.34
67054;SHT31;53960;51.826;5.850;2023-12-14T08:02:47;5.93;94.84
67054;SHT31;53960;51.826;5.850;2023-12-14T08:05:12;5.96;94.74
67054;SHT31;53960;51.826;5.850;2023-12-14T08:07:37;6.01;94.46
67054;SHT31;53960;51.826;5.850;2023-12-14T08:10:03;6.04;93.96
67054;SHT31;53960;51.826;5.850;2023-12-14T08:12:29;6.08;94.17
67054;SHT31;53960;51.826;5.850;2023-12-14T08:14:54;6.16;93.79
67054;SHT31;53960;51.826;5.850;2023-12-14T08:17:19;6.06;93.87
67054;SHT31;53960;51.826;5.850;2023-12-14T08:19:46;6.13;93.46
67054;SHT31;53960;51.826;5.850;2023-12-14T08:22:12;6.10;93.14
67054;SHT31;53960;51.826;5.850;2023-12-14T08:24:41;5.97;93.32
67054;SHT31;53960;51.826;5.850;2023-12-14T08:27:06;5.89;93.63
67054;SHT31;53960;51.826;5.850;2023-12-14T08:29:32;5.87;94.37
67054;SHT31;53960;51.826;5.850;2023-12-14T08:31:57;5.93;94.43
67054;SHT31;53960;51.826;5.850;2023-12-14T08:34:27;5.89;93.94
67054;SHT31;53960;51.826;5.850;2023-12-14T08:36:52;5.79;94.35
67054;SHT31;53960;51.826;5.850;2023-12-14T08:39:18;5.81;93.63
67054;SHT31;53960;51.826;5.850;2023-12-14T08:41:45;5.86;93.45
67054;SHT31;53960;51.826;5.850;2023-12-14T08:44:11;5.89;92.91
67054;SHT31;53960;51.826;5.850;2023-12-14T08:46:45;5.85;93.22
67054;SHT31;53960;51.826;5.850;2023-12-14T08:49:11;5.91;93.56
67054;SHT31;53960;51.826;5.850;2023-12-14T08:51:37;5.97;93.30
67054;SHT31;53960;51.826;5.850;2023-12-14T08:54:04;5.89;93.13
67054;SHT31;53960;51.826;5.850;2023-12-14T08:56:29;5.81;93.57
67054;SHT31;53960;51.826;5.850;2023-12-14T08:58:55;5.79;93.83
67054;SHT31;53960;51.826;5.850;2023-12-14T09:01:21;5.86;93.92
67054;SHT31;53960;51.826;5.850;2023-12-14T09:03:47;5.86;93.62
67054;SHT31;53960;51.826;5.850;2023-12-14T09:06:12;5.96;93.60
67054;SHT31;53960;51.826;5.850;2023-12-14T09:08:37;6.01;92.84
67054;SHT31;53960;51.826;5.850;2023-12-14T09:11:03;5.98;92.48
67054;SHT31;53960;51.826;5.850;2023-12-14T09:13:29;5.91;92.53
67054;SHT31;53960;51.826;5.850;2023-12-14T09:15:54;5.98;92.08
67054;SHT31;53960;51.826;5.850;2023-12-14T09:18:20;6.04;91.34
67054;SHT31;53960;51.826;5.850;2023-12-14T09:20:48;6.07;91.02
67054;SHT31;53960;51.826;5.850;2023-12-14T09:23:14;6.07;90.57
67054;SHT31;53960;51.826;5.850;2023-12-14T09:25:40;5.98;91.23
67054;SHT31;53960;51.826;5.850;2023-12-14T09:28:05;5.94;91.40
67054;SHT31;53960;51.826;5.850;2023-12-14T09:30:30;5.90;91.71
67054;SHT31;53960;51.826;5.850;2023-12-14T09:32:56;5.91;91.53
67054;SHT31;53960;51.826;5.850;2023-12-14T09:35:21;5.96;91.02
67054;SHT31;53960;51.826;5.850;2023-12-14T09:37:46;6.04;91.29
67054;SHT31;53960;51.826;5.850;2023-12-14T09:40:12;6.11;90.34
67054;SHT31;53960;51.826;5.850;2023-12-14T09:42:38;6.11;90.57
67054;SHT31;53960;51.826;5.850;2023-12-14T09:45:06;6.21;90.26
67054;SHT31;53960;51.826;5.850;2023-12-14T09:47:32;6.21;90.24
67054;SHT31;53960;51.826;5.850;2023-12-14T09:49:58;6.25;90.11
67054;SHT31;53960;51.826;5.850;2023-12-14T09:52:25;6.16;89.51
67054;SHT31;53960;51.826;5.850;2023-12-14T09:54:50;6.13;89.75
67054;SHT31;53960;51.826;5.850;2023-12-14T09:57:18;6.14;89.81
67054;SHT31;53960;51.826;5.850;2023-12-14T09:59:53;6.18;89.74
67054;SHT31;53960;51.826;5.850;2023-12-14T10:02:19;6.18;90.01
67054;SHT31;53960;51.826;5.850;2023-12-14T10:04:46;6.22;90.01
67054;SHT31;53960;51.826;5.850;2023-12-14T10:07:11;6.28;89.71
67054;SHT31;53960;51.826;5.850;2023-12-14T10:09:37;6.20;89.62
67054;SHT31;53960;51.826;5.850;2023-12-14T10:12:07;6.24;89.90
67054;SHT31;53960;51.826;5.850;2023-12-14T10:14:33;6.24;89.91
67054;SHT31;53960;51.826;5.850;2023-12-14T10:16:58;6.28;89.97
67054;SHT31;53960;51.826;5.850;2023-12-14T10:19:24;6.28;89.71
67054;SHT31;53960;51.826;5.850;2023-12-14T10:21:50;6.28;89.82
67054;SHT31;53960;51.826;5.850;2023-12-14T10:24:17;6.31;90.12
67054;SHT31;53960;51.826;5.850;2023-12-14T10:26:45;6.42;89.53
67054;SHT31;53960;51.826;5.850;2023-12-14T10:29:11;6.45;89.22
67054;SHT31;53960;51.826;5.850;2023-12-14T10:31:37;6.46;89.49
67054;SHT31;53960;51.826;5.850;2023-12-14T10:34:06;6.29;89.34
67054;SHT31;53960;51.826;5.850;2023-12-14T10:36:32;6.29;89.76
67054;SHT31;53960;51.826;5.850;2023-12-14T10:38:59;6.31;89.81
67054;SHT31;53960;51.826;5.850;2023-12-14T10:41:25;6.32;89.90
67054;SHT31;53960;51.826;5.850;2023-12-14T10:43:53;6.39;90.04
67054;SHT31;53960;51.826;5.850;2023-12-14T10:46:19;6.32;89.86
67054;SHT31;53960;51.826;5.850;2023-12-14T10:48:47;6.34;89.96
67054;SHT31;53960;51.826;5.850;2023-12-14T10:51:12;6.38;90.15
67054;SHT31;53960;51.826;5.850;2023-12-14T10:53:39;6.41;90.30
67054;SHT31;53960;51.826;5.850;2023-12-14T10:56:06;6.38;89.56
67054;SHT31;53960;51.826;5.850;2023-12-14T10:59:02;6.28;90.01
67054;SHT31;53960;51.826;5.850;2023-12-14T11:01:28;6.39;89.84
67054;SHT31;53960;51.826;5.850;2023-12-14T11:03:56;6.41;89.34
67054;SHT31;53960;51.826;5.850;2023-12-14T11:06:32;6.38;89.34
67054;SHT31;53960;51.826;5.850;2023-12-14T11:09:04;6.50;89.40
67054;SHT31;53960;51.826;5.850;2023-12-14T11:11:40;6.48;88.92
67054;SHT31;53960;51.826;5.850;2023-12-14T11:14:07;6.41;88.81
67054;SHT31;53960;51.826;5.850;2023-12-14T11:16:33;6.42;89.22
67054;SHT31;53960;51.826;5.850;2023-12-14T11:21:47;6.37;89.23
67054;SHT31;53960;51.826;5.850;2023-12-14T11:24:12;6.46;88.87
67054;SHT31;53960;51.826;5.850;2023-12-14T11:26:38;6.52;88.77
67054;SHT31;53960;51.826;5.850;2023-12-14T11:29:03;6.49;89.06
67054;SHT31;53960;51.826;5.850;2023-12-14T11:31:29;6.58;88.90
67054;SHT31;53960;51.826;5.850;2023-12-14T11:33:55;6.46;88.62
67054;SHT31;53960;51.826;5.850;2023-12-14T11:36:21;6.27;89.26
67054;SHT31;53960;51.826;5.850;2023-12-14T11:38:47;6.31;89.65
67054;SHT31;53960;51.826;5.850;2023-12-14T11:41:13;6.44;89.63
67054;SHT31;53960;51.826;5.850;2023-12-14T11:43:43;6.50;89.67
67054;SHT31;53960;51.826;5.850;2023-12-14T11:46:09;6.52;89.74
67054;SHT31;53960;51.826;5.850;2023-12-14T11:48:35;6.50;89.50
67054;SHT31;53960;51.826;5.850;2023-12-14T11:51:00;6.52;89.71
67054;SHT31;53960;51.826;5.850;2023-12-14T11:53:26;6.49;89.04
67054;SHT31;53960;51.826;5.850;2023-12-14T11:55:51;6.52;88.69
67054;SHT31;53960;51.826;5.850;2023-12-14T11:58:17;6.55;88.69
67054;SHT31;53960;51.826;5.850;2023-12-14T12:00:43;6.52;88.74
67054;SHT31;53960;51.826;5.850;2023-12-14T12:03:19;6.66;88.14
67054;SHT31;53960;51.826;5.850;2023-12-14T12:05:51;6.71;88.22
67054;SHT31;53960;51.826;5.850;2023-12-14T12:08:18;6.61;88.28
67054;SHT31;53960;51.826;5.850;2023-12-14T12:10:44;6.59;88.45
67054;SHT31;53960;51.826;5.850;2023-12-14T12:13:16;6.64;88.47
67054;SHT31;53960;51.826;5.850;2023-12-14T12:15:41;6.62;88.54
67054;SHT31;53960;51.826;5.850;2023-12-14T12:18:09;6.65;88.38
67054;SHT31;53960;51.826;5.850;2023-12-14T12:20:34;6.65;88.57
67054;SHT31;53960;51.826;5.850;2023-12-14T12:23:01;6.75;88.43
67054;SHT31;53960;51.826;5.850;2023-12-14T12:25:26;6.75;88.19
67054;SHT31;53960;51.826;5.850;2023-12-14T12:27:54;6.83;88.06
67054;SHT31;53960;51.826;5.850;2023-12-14T12:30:20;6.85;87.99
67054;SHT31;53960;51.826;5.850;2023-12-14T12:32:46;6.89;87.24
67054;SHT31;53960;51.826;5.850;2023-12-14T12:35:12;6.90;87.66
67054;SHT31;53960;51.826;5.850;2023-12-14T12:37:38;6.90;87.78
67054;SHT31;53960;51.826;5.850;2023-12-14T12:40:05;6.87;87.92
67054;SHT31;53960;51.826;5.850;2023-12-14T12:42:30;6.82;87.89
67054;SHT31;53960;51.826;5.850;2023-12-14T12:44:56;6.76;87.78
67054;SHT31;53960;51.826;5.850;2023-12-14T12:47:21;6.73;87.87
67054;SHT31;53960;51.826;5.850;2023-12-14T12:49:47;6.75;87.98
67054;SHT31;53960;51.826;5.850;2023-12-14T12:52:12;6.85;88.29
67054;SHT31;53960;51.826;5.850;2023-12-14T12:54:38;6.90;87.96
67054;SHT31;53960;51.826;5.850;2023-12-14T12:57:05;6.87;87.54
67054;SHT31;53960;51.826;5.850;2023-12-14T12:59:30;6.93;88.49
67054;SHT31;53960;51.826;5.850;2023-12-14T13:01:56;6.93;87.62
67054;SHT31;53960;51.826;5.850;2023-12-14T13:04:21;6.99;87.64
67054;SHT31;53960;51.826;5.850;2023-12-14T13:06:48;7.07;87.28
67054;SHT31;53960;51.826;5.850;2023-12-14T13:09:16;7.00;87.25
67054;SHT31;53960;51.826;5.850;2023-12-14T13:11:45;6.89;87.89
67054;SHT31;53960;51.826;5.850;2023-12-14T13:14:11;6.97;88.00
67054;SHT31;53960;51.826;5.850;2023-12-14T13:16:37;6.93;87.94
67054;SHT31;53960;51.826;5.850;2023-12-14T13:19:03;6.87;87.67
67054;SHT31;53960;51.826;5.850;2023-12-14T13:21:38;6.87;87.99
67054;SHT31;53960;51.826;5.850;2023-12-14T13:24:04;6.90;88.22
67054;SHT31;53960;51.826;5.850;2023-12-14T13:26:29;6.89;88.28
67054;SHT31;53960;51.826;5.850;2023-12-14T13:28:55;6.76;88.27
67054;SHT31;53960;51.826;5.850;2023-12-14T13:31:20;6.79;88.48
67054;SHT31;53960;51.826;5.850;2023-12-14T13:33:46;6.83;88.48
67054;SHT31;53960;51.826;5.850;2023-12-14T13:36:13;6.83;88.89
67054;SHT31;53960;51.826;5.850;2023-12-14T13:38:38;6.87;88.20
67054;SHT31;53960;51.826;5.850;2023-12-14T13:41:04;6.89;88.43
67054;SHT31;53960;51.826;5.850;2023-12-14T13:43:30;6.95;88.57
67054;SHT31;53960;51.826;5.850;2023-12-14T13:45:56;6.99;88.28
67054;SHT31;53960;51.826;5.850;2023-12-14T13:48:27;7.01;88.56
67054;SHT31;53960;51.826;5.850;2023-12-14T13:50:53;7.04;88.32
67054;SHT31;53960;51.826;5.850;2023-12-14T13:53:19;7.08;87.57
67054;SHT31;53960;51.826;5.850;2023-12-14T13:55:45;7.13;87.30
67054;SHT31;53960;51.826;5.850;2023-12-14T13:58:11;7.08;87.61
67054;SHT31;53960;51.826;5.850;2023-12-14T14:00:37;7.08;87.64
67054;SHT31;53960;51.826;5.850;2023-12-14T14:03:02;7.13;87.21
67054;SHT31;53960;51.826;5.850;2023-12-14T14:05:32;7.01;87.64
67054;SHT31;53960;51.826;5.850;2023-12-14T14:07:58;6.97;87.97
67054;SHT31;53960;51.826;5.850;2023-12-14T14:10:23;6.97;87.76
67054;SHT31;53960;51.826;5.850;2023-12-14T14:12:49;7.00;87.06
67054;SHT31;53960;51.826;5.850;2023-12-14T14:15:15;7.00;87.83
67054;SHT31;53960;51.826;5.850;2023-12-14T14:17:41;7.00;87.76
67054;SHT31;53960;51.826;5.850;2023-12-14T14:20:06;7.04;87.68
67054;SHT31;53960;51.826;5.850;2023-12-14T14:22:33;7.03;87.58
67054;SHT31;53960;51.826;5.850;2023-12-14T14:24:59;7.03;88.10
67054;SHT31;53960;51.826;5.850;2023-12-14T14:27:24;7.06;88.12
67054;SHT31;53960;51.826;5.850;2023-12-14T14:29:50;7.08;87.97
67054;SHT31;53960;51.826;5.850;2023-12-14T14:32:15;7.13;87.77
67054;SHT31;53960;51.826;5.850;2023-12-14T14:34:41;7.14;87.82
67054;SHT31;53960;51.826;5.850;2023-12-14T14:37:07;7.17;87.98
67054;SHT31;53960;51.826;5.850;2023-12-14T14:39:32;7.14;87.80
67054;SHT31;53960;51.826;5.850;2023-12-14T14:41:58;7.11;87.62
67054;SHT31;53960;51.826;5.850;2023-12-14T14:44:24;7.10;87.30
67054;SHT31;53960;51.826;5.850;2023-12-14T14:46:49;7.11;87.28
67054;SHT31;53960;51.826;5.850;2023-12-14T14:49:14;7.11;87.33
67054;SHT31;53960;51.826;5.850;2023-12-14T14:51:40;7.07;87.81
67054;SHT31;53960;51.826;5.850;2023-12-14T14:54:05;6.99;88.37
67054;SHT31;53960;51.826;5.850;2023-12-14T14:56:30;6.96;88.63
67054;SHT31;53960;51.826;5.850;2023-12-14T14:58:56;6.89;88.90
67054;SHT31;53960;51.826;5.850;2023-12-14T15:01:21;6.85;89.25
67054;SHT31;53960;51.826;5.850;2023-12-14T15:03:46;6.77;90.08
67054;SHT31;53960;51.826;5.850;2023-12-14T15:06:12;6.86;89.35
67054;SHT31;53960;51.826;5.850;2023-12-14T15:08:37;6.80;89.51
67054;SHT31;53960;51.826;5.850;2023-12-14T15:11:03;6.72;90.49
67054;SHT31;53960;51.826;5.850;2023-12-14T15:13:28;6.66;91.08
67054;SHT31;53960;51.826;5.850;2023-12-14T15:15:54;6.61;91.45
67054;SHT31;53960;51.826;5.850;2023-12-14T15:18:20;6.52;91.95
67054;SHT31;53960;51.826;5.850;2023-12-14T15:20:46;6.58;91.79
67054;SHT31;53960;51.826;5.850;2023-12-14T15:23:14;6.56;92.02
67054;SHT31;53960;51.826;5.850;2023-12-14T15:25:39;6.61;91.99
67054;SHT31;53960;51.826;5.850;2023-12-14T15:28:05;6.61;92.26
67054;SHT31;53960;51.826;5.850;2023-12-14T15:30:31;6.58;92.27
67054;SHT31;53960;51.826;5.850;2023-12-14T15:32:56;6.65;92.25
67054;SHT31;53960;51.826;5.850;2023-12-14T15:35:22;6.61;92.18
67054;SHT31;53960;51.826;5.850;2023-12-14T15:37:47;6.62;92.65
67054;SHT31;53960;51.826;5.850;2023-12-14T15:40:12;6.56;92.82